Time;durP1;ratioP1;P1;durP2;ratioP2;P2;SDS_P1;SDS_P2;PMS_P1;PMS_P2;Temp;Humidity;BMP_temperature;BMP_pressure;BME280_temperature;BME280_humidity;BME280_pressure;Samples;Min_cycle;Max_cycle;Signal;HPM_P1;HPM_P2
2022/05/11 00:00:04;;;;;;;3.88;3.42;;;;;;;;;;4965450;28;20633;-75
2022/05/11 00:02:30;;;;;;;3.97;2.83;;;;;;;;;;4980959;28;20211;-75
2022/05/11 00:04:56;;;;;;;3.75;3.03;;;;;;;;;;4979307;28;20214;-75
2022/05/11 00:07:22;;;;;;;3.13;2.47;;;;;;;;;;4963876;28;20196;-75
2022/05/11 00:09:48;;;;;;;3.00;2.63;;;;;;;;;;4982564;28;20624;-75
2022/05/11 00:12:15;;;;;;;3.93;3.37;;;;;;;;;;4982061;28;20466;-75
2022/05/11 00:14:41;;;;;;;2.80;2.60;;;;;;;;;;4963888;28;20443;-75
2022/05/11 00:17:07;;;;;;;3.55;2.65;;;;;;;;;;4966630;28;20227;-75
2022/05/11 00:19:33;;;;;;;2.90;2.70;;;;;;;;;;4981002;28;20324;-75
2022/05/11 00:21:59;;;;;;;3.80;3.50;;;;;;;;;;5002021;28;20426;-75
2022/05/11 00:24:26;;;;;;;4.90;2.87;;;;;;;;;;5001495;28;20203;-75
2022/05/11 00:26:52;;;;;;;3.60;3.30;;;;;;;;;;4982558;28;20502;-75
2022/05/11 00:29:18;;;;;;;3.45;2.90;;;;;;;;;;5001032;28;20206;-75
2022/05/11 00:31:44;;;;;;;3.10;2.70;;;;;;;;;;4986223;28;20584;-75
2022/05/11 00:34:10;;;;;;;3.42;3.13;;;;;;;;;;4993440;28;20236;-75
2022/05/11 00:36:36;;;;;;;3.13;2.93;;;;;;;;;;4991375;28;20183;-75
2022/05/11 00:39:03;;;;;;;5.05;3.15;;;;;;;;;;4998941;28;20442;-75
2022/05/11 00:41:29;;;;;;;3.50;3.20;;;;;;;;;;5000831;28;20548;-75
2022/05/11 00:43:59;;;;;;;3.45;3.15;;;;;;;;;;4985183;28;20659;-75
2022/05/11 00:46:25;;;;;;;4.40;2.92;;;;;;;;;;5000037;28;20190;-75
2022/05/11 00:51:40;;;;;;;4.07;3.08;;;;;;;;;;5003410;28;20453;-75
2022/05/11 00:54:06;;;;;;;3.72;2.80;;;;;;;;;;4999019;28;20197;-75
2022/05/11 00:56:33;;;;;;;3.97;2.90;;;;;;;;;;4999909;28;20841;-75
2022/05/11 00:59:04;;;;;;;4.80;3.05;;;;;;;;;;4982251;28;20221;-75
2022/05/11 01:01:30;;;;;;;3.00;2.80;;;;;;;;;;5000481;28;20193;-75
2022/05/11 01:04:17;;;;;;;2.67;2.47;;;;;;;;;;4984374;28;20178;-75
2022/05/11 01:06:43;;;;;;;2.83;2.45;;;;;;;;;;5001196;28;20183;-75
2022/05/11 01:09:10;;;;;;;3.58;2.67;;;;;;;;;;4999920;28;20183;-75
2022/05/11 01:11:41;;;;;;;4.70;3.20;;;;;;;;;;4999892;28;20205;-75
2022/05/11 01:14:08;;;;;;;4.35;2.88;;;;;;;;;;5000111;28;20187;-75
2022/05/11 01:16:35;;;;;;;2.53;2.33;;;;;;;;;;4999518;28;20225;-75
2022/05/11 01:19:01;;;;;;;2.70;2.50;;;;;;;;;;5000599;28;20222;-75
2022/05/11 01:21:35;;;;;;;3.92;2.85;;;;;;;;;;4985788;28;20194;-74
2022/05/11 01:24:03;;;;;;;3.20;2.80;;;;;;;;;;4996921;28;20207;-75
2022/05/11 01:26:33;;;;;;;3.30;3.00;;;;;;;;;;4973088;28;20542;-75
2022/05/11 01:28:59;;;;;;;3.80;3.00;;;;;;;;;;4997515;28;20190;-75
2022/05/11 01:31:25;;;;;;;4.45;2.95;;;;;;;;;;4996730;28;20194;-75
2022/05/11 01:33:51;;;;;;;2.60;2.40;;;;;;;;;;4995257;28;20184;-75
2022/05/11 01:36:31;;;;;;;4.43;3.05;;;;;;;;;;4993904;28;20452;-75
2022/05/11 01:39:04;;;;;;;3.00;2.80;;;;;;;;;;4994858;28;20844;-75
2022/05/11 01:41:32;;;;;;;3.30;3.00;;;;;;;;;;4997379;28;20194;-75
2022/05/11 01:43:59;;;;;;;4.85;2.63;;;;;;;;;;4984206;28;20229;-75
2022/05/11 01:46:25;;;;;;;3.40;3.10;;;;;;;;;;4998251;28;20200;-75
2022/05/11 01:48:52;;;;;;;3.30;2.80;;;;;;;;;;4983439;28;20185;-75
2022/05/11 01:51:19;;;;;;;5.65;3.17;;;;;;;;;;5000444;28;20187;-74
2022/05/11 01:53:45;;;;;;;2.85;2.65;;;;;;;;;;4990713;28;20189;-75
2022/05/11 01:56:14;;;;;;;2.63;2.42;;;;;;;;;;4985490;28;20177;-74
2022/05/11 01:58:40;;;;;;;5.20;3.10;;;;;;;;;;5003146;28;20220;-74
2022/05/11 02:01:06;;;;;;;4.33;2.83;;;;;;;;;;4999460;28;20553;-74
2022/05/11 02:03:32;;;;;;;2.58;2.35;;;;;;;;;;5001011;28;20924;-74
2022/05/11 02:08:43;;;;;;;3.20;2.90;;;;;;;;;;4997726;28;20496;-74
2022/05/11 02:11:10;;;;;;;2.75;2.50;;;;;;;;;;4987261;28;20599;-74
2022/05/11 02:13:36;;;;;;;3.47;3.17;;;;;;;;;;4987005;28;20298;-75
2022/05/11 02:16:03;;;;;;;3.35;3.05;;;;;;;;;;4982031;28;20211;-74
2022/05/11 02:18:29;;;;;;;7.50;4.13;;;;;;;;;;4973711;28;20225;-75
2022/05/11 02:20:55;;;;;;;3.60;3.17;;;;;;;;;;4997148;28;20616;-74
2022/05/11 02:23:22;;;;;;;4.32;3.28;;;;;;;;;;4981261;28;20196;-74
2022/05/11 02:25:48;;;;;;;5.25;3.15;;;;;;;;;;4996554;28;20279;-75
2022/05/11 02:28:15;;;;;;;4.47;4.07;;;;;;;;;;4998627;28;20191;-75
2022/05/11 02:30:43;;;;;;;3.40;3.10;;;;;;;;;;4987752;28;20559;-75
2022/05/11 02:33:09;;;;;;;3.53;2.90;;;;;;;;;;4979480;28;20204;-74
2022/05/11 02:35:35;;;;;;;3.92;2.80;;;;;;;;;;5001222;28;20190;-75
2022/05/11 02:38:03;;;;;;;2.75;2.55;;;;;;;;;;4996029;28;20191;-75
2022/05/11 02:40:31;;;;;;;2.83;2.33;;;;;;;;;;4999412;28;20179;-75
2022/05/11 02:42:57;;;;;;;5.35;3.00;;;;;;;;;;4999570;28;20211;-74
2022/05/11 02:45:24;;;;;;;2.92;2.63;;;;;;;;;;4986871;28;20179;-75
2022/05/11 02:47:51;;;;;;;4.60;3.00;;;;;;;;;;4997486;28;20648;-74
2022/05/11 02:50:21;;;;;;;2.63;2.40;;;;;;;;;;4999622;28;20188;-74
2022/05/11 02:52:48;;;;;;;3.65;3.28;;;;;;;;;;4993925;28;20296;-75
2022/05/11 02:55:14;;;;;;;3.00;2.63;;;;;;;;;;4998070;28;20184;-74
2022/05/11 02:57:40;;;;;;;4.97;3.20;;;;;;;;;;4987581;28;20189;-75
2022/05/11 03:00:09;;;;;;;2.78;2.58;;;;;;;;;;4997434;28;20225;-75
2022/05/11 03:02:35;;;;;;;4.50;3.03;;;;;;;;;;4997202;28;20231;-75
2022/05/11 03:05:02;;;;;;;3.78;2.75;;;;;;;;;;4998533;28;20200;-75
2022/05/11 03:07:28;;;;;;;3.28;2.55;;;;;;;;;;4994834;28;20193;-75
2022/05/11 03:09:54;;;;;;;3.45;2.50;;;;;;;;;;4999475;28;20179;-75
2022/05/11 03:12:22;;;;;;;3.38;2.30;;;;;;;;;;4998344;28;20210;-75
2022/05/11 03:14:48;;;;;;;6.43;2.40;;;;;;;;;;4997386;28;20179;-75
2022/05/11 03:17:14;;;;;;;3.75;2.75;;;;;;;;;;4986735;28;20213;-75
2022/05/11 03:19:40;;;;;;;4.80;2.87;;;;;;;;;;4983960;28;20458;-75
2022/05/11 03:22:06;;;;;;;3.47;2.83;;;;;;;;;;4999464;28;20454;-75
2022/05/11 03:24:32;;;;;;;2.87;2.67;;;;;;;;;;4976913;28;20455;-74
2022/05/11 03:26:58;;;;;;;3.05;2.85;;;;;;;;;;4997009;28;20470;-75
2022/05/11 03:29:24;;;;;;;3.30;3.00;;;;;;;;;;5002740;28;20195;-75
2022/05/11 03:34:38;;;;;;;4.53;2.85;;;;;;;;;;4991620;28;20442;-74
2022/05/11 03:37:05;;;;;;;3.83;3.00;;;;;;;;;;4990635;28;20198;-75
2022/05/11 03:39:31;;;;;;;2.60;2.40;;;;;;;;;;4996656;28;20187;-75
2022/05/11 03:41:57;;;;;;;4.30;2.83;;;;;;;;;;4997971;28;20201;-75
2022/05/11 03:44:23;;;;;;;3.60;2.63;;;;;;;;;;4992516;28;20450;-75
2022/05/11 03:46:49;;;;;;;3.97;3.57;;;;;;;;;;4985464;28;20446;-75
2022/05/11 03:49:15;;;;;;;3.43;2.83;;;;;;;;;;5001159;28;20988;-74
2022/05/11 03:51:40;;;;;;;3.87;3.20;;;;;;;;;;5000261;28;20457;-75
2022/05/11 03:54:07;;;;;;;3.83;2.73;;;;;;;;;;4996705;28;20536;-75
2022/05/11 03:56:33;;;;;;;3.55;2.80;;;;;;;;;;4992291;28;20439;-75
2022/05/11 03:58:59;;;;;;;3.75;2.90;;;;;;;;;;4999237;28;20266;-75
2022/05/11 04:01:25;;;;;;;4.45;2.83;;;;;;;;;;4997990;28;20181;-75
2022/05/11 04:03:51;;;;;;;3.88;2.70;;;;;;;;;;4980505;28;20167;-75
2022/05/11 04:06:17;;;;;;;3.20;2.90;;;;;;;;;;4998157;28;20604;-75
2022/05/11 04:08:43;;;;;;;4.17;3.10;;;;;;;;;;4997325;28;20255;-75
2022/05/11 04:11:11;;;;;;;3.10;2.80;;;;;;;;;;4975059;28;20446;-75
2022/05/11 04:13:37;;;;;;;3.20;2.90;;;;;;;;;;4999908;28;20466;-75
2022/05/11 04:16:03;;;;;;;4.40;2.90;;;;;;;;;;4980036;28;20211;-74
2022/05/11 04:18:29;;;;;;;6.97;4.25;;;;;;;;;;5009306;28;20468;-75
2022/05/11 04:20:55;;;;;;;4.13;3.30;;;;;;;;;;5001047;28;20190;-74
2022/05/11 04:23:21;;;;;;;2.80;2.50;;;;;;;;;;4974489;28;20457;-74
2022/05/11 04:25:47;;;;;;;3.90;2.57;;;;;;;;;;4984831;28;20449;-75
2022/05/11 04:28:13;;;;;;;3.23;2.93;;;;;;;;;;4983042;28;20446;-74
2022/05/11 04:30:40;;;;;;;3.35;3.05;;;;;;;;;;5001677;28;20908;-74
2022/05/11 04:33:07;;;;;;;4.25;2.90;;;;;;;;;;4991164;28;20211;-75
2022/05/11 04:35:34;;;;;;;3.10;2.47;;;;;;;;;;4982499;28;20194;-75
2022/05/11 04:38:01;;;;;;;3.10;2.55;;;;;;;;;;4989131;28;20179;-75
2022/05/11 04:40:28;;;;;;;3.70;2.80;;;;;;;;;;4997459;28;20188;-75
2022/05/11 04:42:54;;;;;;;4.13;3.53;;;;;;;;;;4996815;28;20183;-75
2022/05/11 04:45:21;;;;;;;3.28;2.92;;;;;;;;;;4993932;28;20211;-75
2022/05/11 04:47:47;;;;;;;6.53;3.40;;;;;;;;;;4982085;28;20557;-74
2022/05/11 04:50:14;;;;;;;4.00;2.75;;;;;;;;;;4992547;28;20203;-75
2022/05/11 04:52:40;;;;;;;3.15;2.83;;;;;;;;;;4999766;28;20215;-75
2022/05/11 04:55:07;;;;;;;3.75;3.35;;;;;;;;;;4996746;28;20194;-75
2022/05/11 04:57:33;;;;;;;3.55;2.85;;;;;;;;;;4997573;28;20262;-75
2022/05/11 04:59:59;;;;;;;3.55;3.25;;;;;;;;;;4984600;28;20187;-75
2022/05/11 05:02:29;;;;;;;3.92;2.90;;;;;;;;;;4985982;28;20237;-75
2022/05/11 05:04:58;;;;;;;3.35;2.90;;;;;;;;;;4998919;28;20271;-76
2022/05/11 05:07:24;;;;;;;4.55;3.10;;;;;;;;;;5000482;28;20217;-75
2022/05/11 05:09:50;;;;;;;5.03;3.57;;;;;;;;;;4982432;28;20183;-75
2022/05/11 05:12:16;;;;;;;3.88;3.38;;;;;;;;;;4995081;28;20481;-75
2022/05/11 05:14:43;;;;;;;7.70;3.73;;;;;;;;;;4991776;28;20557;-75
2022/05/11 05:17:10;;;;;;;3.53;3.20;;;;;;;;;;4985097;28;20438;-75
2022/05/11 05:19:41;;;;;;;4.30;3.90;;;;;;;;;;4999809;28;20281;-75
2022/05/11 05:22:07;;;;;;;4.78;3.40;;;;;;;;;;4999191;28;20180;-75
2022/05/11 05:24:34;;;;;;;7.03;4.10;;;;;;;;;;5001305;28;20198;-75
2022/05/11 05:27:00;;;;;;;6.05;3.65;;;;;;;;;;4999635;28;20223;-75
2022/05/11 05:32:11;;;;;;;4.35;3.63;;;;;;;;;;5000643;28;20213;-74
2022/05/11 05:34:37;;;;;;;5.68;4.00;;;;;;;;;;5004036;28;20182;-75
2022/05/11 05:37:03;;;;;;;4.57;3.80;;;;;;;;;;5000601;28;20262;-75
2022/05/11 05:39:29;;;;;;;4.63;3.70;;;;;;;;;;5001542;28;20422;-75
2022/05/11 05:41:55;;;;;;;5.13;3.40;;;;;;;;;;4998587;28;20198;-75
2022/05/11 05:44:21;;;;;;;5.00;4.50;;;;;;;;;;4999766;28;20185;-75
2022/05/11 05:46:48;;;;;;;8.20;4.30;;;;;;;;;;4999056;28;20479;-75
2022/05/11 05:49:14;;;;;;;5.10;4.55;;;;;;;;;;5002330;28;20196;-75
2022/05/11 05:51:40;;;;;;;5.07;4.07;;;;;;;;;;4988622;28;20233;-75
2022/05/11 05:54:06;;;;;;;3.72;3.42;;;;;;;;;;4988153;28;20195;-75
2022/05/11 05:56:33;;;;;;;4.70;4.18;;;;;;;;;;4999375;28;20239;-75
2022/05/11 05:59:05;;;;;;;4.38;3.95;;;;;;;;;;4999996;28;20187;-75
2022/05/11 06:01:31;;;;;;;4.60;4.03;;;;;;;;;;4983645;28;20196;-74
2022/05/11 06:03:58;;;;;;;4.47;4.07;;;;;;;;;;4997167;28;20243;-75
2022/05/11 06:06:24;;;;;;;5.00;4.50;;;;;;;;;;4985861;28;20872;-75
2022/05/11 06:08:50;;;;;;;5.07;4.43;;;;;;;;;;4994580;28;20206;-75
2022/05/11 06:11:16;;;;;;;6.30;5.50;;;;;;;;;;4997908;28;20465;-75
2022/05/11 06:13:45;;;;;;;5.53;4.87;;;;;;;;;;4985078;28;20472;-74
2022/05/11 06:16:13;;;;;;;5.15;4.55;;;;;;;;;;4981698;28;20438;-75
2022/05/11 06:18:41;;;;;;;5.40;4.85;;;;;;;;;;4999869;28;20230;-75
2022/05/11 06:21:07;;;;;;;7.10;5.15;;;;;;;;;;5001611;28;20185;-75
2022/05/11 06:23:33;;;;;;;6.25;4.72;;;;;;;;;;4998282;28;20204;-74
2022/05/11 06:25:59;;;;;;;4.50;4.10;;;;;;;;;;4997022;28;20881;-75
2022/05/11 06:28:25;;;;;;;6.13;4.78;;;;;;;;;;4994645;28;20441;-74
2022/05/11 06:30:51;;;;;;;5.57;5.07;;;;;;;;;;4985156;28;20183;-74
2022/05/11 06:33:17;;;;;;;5.13;4.63;;;;;;;;;;5001982;28;20473;-75
2022/05/11 06:35:44;;;;;;;7.00;5.60;;;;;;;;;;4988862;28;20182;-76
2022/05/11 06:38:10;;;;;;;4.97;4.55;;;;;;;;;;4982913;28;20450;-79
2022/05/11 06:40:37;;;;;;;5.57;5.05;;;;;;;;;;4982611;28;20191;-75
2022/05/11 06:43:04;;;;;;;7.03;5.53;;;;;;;;;;4981593;28;21265;-73
2022/05/11 06:45:30;;;;;;;5.38;4.88;;;;;;;;;;5000947;28;20209;-75
2022/05/11 06:47:56;;;;;;;5.03;4.45;;;;;;;;;;4998779;28;20191;-75
2022/05/11 06:50:24;;;;;;;5.40;4.43;;;;;;;;;;4991937;28;20202;-75
2022/05/11 06:52:51;;;;;;;5.22;4.30;;;;;;;;;;4986733;28;20204;-76
2022/05/11 07:00:47;;;;;;;4.03;3.65;;;;;;;;;;4998233;28;20194;-75
2022/05/11 07:03:13;;;;;;;5.25;4.75;;;;;;;;;;4999143;28;20206;-76
2022/05/11 07:05:41;;;;;;;6.43;4.13;;;;;;;;;;4996512;28;20200;-76
2022/05/11 07:08:07;;;;;;;5.60;4.25;;;;;;;;;;4986631;28;20198;-76
2022/05/11 07:10:36;;;;;;;4.75;4.35;;;;;;;;;;4998187;28;20203;-75
2022/05/11 07:13:04;;;;;;;6.28;5.40;;;;;;;;;;4999093;28;20195;-75
2022/05/11 07:15:30;;;;;;;5.25;4.75;;;;;;;;;;4987975;28;20175;-75
2022/05/11 07:17:59;;;;;;;5.35;4.63;;;;;;;;;;4989520;28;20187;-75
2022/05/11 07:20:26;;;;;;;4.55;4.05;;;;;;;;;;4991291;28;20179;-75
2022/05/11 07:22:52;;;;;;;4.70;4.30;;;;;;;;;;5000443;28;20202;-75
2022/05/11 07:25:19;;;;;;;5.45;4.25;;;;;;;;;;4983280;28;20205;-75
2022/05/11 07:27:46;;;;;;;9.13;6.25;;;;;;;;;;4982170;28;20203;-75
2022/05/11 07:30:17;;;;;;;4.35;3.70;;;;;;;;;;4998253;28;20767;-75
2022/05/11 07:32:43;;;;;;;4.38;3.95;;;;;;;;;;4998869;28;20248;-75
2022/05/11 07:35:09;;;;;;;4.43;3.67;;;;;;;;;;4977920;28;20183;-75
2022/05/11 07:37:35;;;;;;;6.15;3.80;;;;;;;;;;4985212;28;20558;-75
2022/05/11 07:40:01;;;;;;;5.72;3.55;;;;;;;;;;4998434;28;20179;-75
2022/05/11 07:42:28;;;;;;;5.20;4.18;;;;;;;;;;4999121;28;20179;-75
2022/05/11 07:44:54;;;;;;;8.52;3.80;;;;;;;;;;4982327;28;20196;-75
2022/05/11 07:47:23;;;;;;;4.75;3.40;;;;;;;;;;4986032;28;20191;-76
2022/05/11 07:49:49;;;;;;;3.65;3.35;;;;;;;;;;4991956;28;20290;-76
2022/05/11 07:52:15;;;;;;;4.10;3.63;;;;;;;;;;4980602;28;20318;-75
2022/05/11 07:54:41;;;;;;;5.05;3.53;;;;;;;;;;4987096;28;20423;-76
2022/05/11 07:59:56;;;;;;;7.70;3.45;;;;;;;;;;4996193;28;20202;-76
2022/05/11 08:02:29;;;;;;;4.22;3.60;;;;;;;;;;4999438;28;20184;-77
2022/05/11 08:05:00;;;;;;;3.88;3.22;;;;;;;;;;4998575;28;20194;-76
2022/05/11 08:07:34;;;;;;;3.33;3.00;;;;;;;;;;4998986;28;20212;-76
2022/05/11 08:10:01;;;;;;;4.25;3.85;;;;;;;;;;4989915;28;20187;-75
2022/05/11 08:12:27;;;;;;;4.13;3.72;;;;;;;;;;4986416;28;20218;-77
2022/05/11 08:14:54;;;;;;;4.22;3.20;;;;;;;;;;4989234;28;20241;-77
2022/05/11 08:17:24;;;;;;;5.03;3.45;;;;;;;;;;4996351;28;20184;-75
2022/05/11 08:19:50;;;;;;;4.40;2.90;;;;;;;;;;4999249;28;20226;-76
2022/05/11 08:22:16;;;;;;;9.43;3.53;;;;;;;;;;4996734;28;20191;-76
2022/05/11 08:24:42;;;;;;;4.80;2.60;;;;;;;;;;4986051;28;20435;-76
2022/05/11 08:27:09;;;;;;;3.30;2.73;;;;;;;;;;4997981;28;20884;-76
2022/05/11 08:35:05;;;;;;;2.60;2.33;;;;;;;;;;4996991;28;20214;-76
2022/05/11 08:37:31;;;;;;;4.88;2.90;;;;;;;;;;4972835;28;20188;-77
2022/05/11 08:39:57;;;;;;;2.67;2.47;;;;;;;;;;4977943;28;20193;-77
2022/05/11 08:42:25;;;;;;;4.20;2.80;;;;;;;;;;4977205;28;20205;-76
2022/05/11 08:44:51;;;;;;;3.05;2.65;;;;;;;;;;4996581;28;20452;-77
2022/05/11 08:47:43;;;;;;;3.80;2.00;;;;;;;;;;4991919;28;20192;-77
2022/05/11 08:50:11;;;;;;;2.13;2.03;;;;;;;;;;4988993;28;20750;-76
2022/05/11 08:52:40;;;;;;;4.32;2.20;;;;;;;;;;4979268;28;20262;-77
2022/05/11 08:55:12;;;;;;;2.10;2.00;;;;;;;;;;4997171;28;20190;-77
2022/05/11 08:57:38;;;;;;;2.30;2.10;;;;;;;;;;4998667;28;20198;-78
2022/05/11 09:00:07;;;;;;;2.40;1.90;;;;;;;;;;4999059;28;20181;-78
2022/05/11 09:02:42;;;;;;;4.30;2.75;;;;;;;;;;4996863;28;20190;-82
2022/05/11 09:05:08;;;;;;;3.92;2.10;;;;;;;;;;4993678;28;20187;-81
2022/05/11 09:07:39;;;;;;;4.07;2.80;;;;;;;;;;5003035;28;20248;-82
2022/05/11 09:10:05;;;;;;;2.50;2.00;;;;;;;;;;4983035;28;20203;-80
2022/05/11 09:12:32;;;;;;;3.97;2.35;;;;;;;;;;5002008;28;20204;-79
2022/05/11 09:15:00;;;;;;;2.40;2.00;;;;;;;;;;4986106;28;20336;-78
2022/05/11 09:17:29;;;;;;;2.90;1.98;;;;;;;;;;4999881;28;20276;-79
2022/05/11 09:20:04;;;;;;;2.00;1.85;;;;;;;;;;4988788;28;20423;-82
2022/05/11 09:22:31;;;;;;;2.83;1.90;;;;;;;;;;4988601;28;20248;-79
2022/05/11 09:25:01;;;;;;;2.80;2.60;;;;;;;;;;4999588;28;20273;-85
2022/05/11 09:27:33;;;;;;;4.07;1.80;;;;;;;;;;5000512;28;20186;-82
2022/05/11 09:30:22;;;;;;;2.05;1.85;;;;;;;;;;4995447;28;20217;-81
2022/05/11 09:32:48;;;;;;;2.38;1.58;;;;;;;;;;4982173;28;20226;-82
2022/05/11 09:35:17;;;;;;;2.22;2.00;;;;;;;;;;4978382;28;20230;-81
2022/05/11 09:37:44;;;;;;;2.37;1.80;;;;;;;;;;4988849;28;20200;-81
2022/05/11 09:40:20;;;;;;;2.00;1.90;;;;;;;;;;4984543;28;20441;-84
2022/05/11 09:42:55;;;;;;;5.63;2.57;;;;;;;;;;4997245;28;20428;-82
2022/05/11 09:45:36;;;;;;;3.17;2.30;;;;;;;;;;5001702;28;20513;-81
2022/05/11 09:48:08;;;;;;;5.17;2.00;;;;;;;;;;4992540;28;20446;-81
2022/05/11 09:50:34;;;;;;;1.80;1.70;;;;;;;;;;4995032;28;20420;-87
2022/05/11 09:53:09;;;;;;;2.23;1.60;;;;;;;;;;4998387;28;20487;-79
2022/05/11 09:55:35;;;;;;;1.50;1.40;;;;;;;;;;4987017;28;21250;-81
2022/05/11 09:58:02;;;;;;;3.00;1.57;;;;;;;;;;5001155;28;20416;-79
2022/05/11 10:00:29;;;;;;;2.50;1.40;;;;;;;;;;4985464;28;20426;-79
2022/05/11 10:02:57;;;;;;;1.67;1.30;;;;;;;;;;4993594;28;20415;-82
2022/05/11 10:05:32;;;;;;;1.53;1.20;;;;;;;;;;4998790;28;20411;-81
2022/05/11 10:08:18;;;;;;;3.13;1.67;;;;;;;;;;4993342;28;20430;-79
2022/05/11 10:10:47;;;;;;;3.13;1.93;;;;;;;;;;4986909;28;20431;-79
2022/05/11 10:13:13;;;;;;;1.37;1.27;;;;;;;;;;4997978;28;20466;-82
2022/05/11 10:24:21;;;;;;;2.97;1.93;;;;;;;;;;4999135;28;20422;-80
2022/05/11 10:26:58;;;;;;;2.37;2.10;;;;;;;;;;4991238;28;20470;-81
2022/05/11 10:29:24;;;;;;;3.60;1.40;;;;;;;;;;5001277;28;20413;-83
2022/05/11 10:31:56;;;;;;;1.97;1.67;;;;;;;;;;4998579;28;20872;-79
2022/05/11 10:34:28;;;;;;;3.00;2.30;;;;;;;;;;4983988;28;20780;-82
2022/05/11 10:37:07;;;;;;;2.47;2.10;;;;;;;;;;5000256;28;20418;-81
2022/05/11 10:39:33;;;;;;;3.43;1.30;;;;;;;;;;4999788;28;20439;-79
2022/05/11 10:42:13;;;;;;;1.90;1.70;;;;;;;;;;4996562;28;20433;-78
2022/05/11 10:44:52;;;;;;;1.73;1.63;;;;;;;;;;4985606;28;20435;-83
2022/05/11 10:47:21;;;;;;;1.73;1.37;;;;;;;;;;4986942;28;20409;-83
2022/05/11 10:50:06;;;;;;;2.23;1.40;;;;;;;;;;5003015;28;20443;-85
2022/05/11 10:52:51;;;;;;;2.13;1.50;;;;;;;;;;4991070;28;20523;-80
2022/05/11 10:55:17;;;;;;;2.87;1.93;;;;;;;;;;4966457;28;20442;-81
2022/05/11 10:57:49;;;;;;;1.40;1.27;;;;;;;;;;4985115;28;20420;-80
2022/05/11 11:00:21;;;;;;;3.70;1.70;;;;;;;;;;4995772;28;20476;-79
2022/05/11 11:03:03;;;;;;;1.63;1.53;;;;;;;;;;4990320;28;20972;-79
2022/05/11 11:05:45;;;;;;;2.43;1.80;;;;;;;;;;4983841;28;20441;-82
2022/05/11 11:08:24;;;;;;;5.50;1.80;;;;;;;;;;4990198;28;20445;-82
2022/05/11 11:11:01;;;;;;;2.33;1.67;;;;;;;;;;4984167;28;20492;-81
2022/05/11 11:14:00;;;;;;;2.30;1.30;;;;;;;;;;4984436;28;20466;-83
2022/05/11 11:16:37;;;;;;;1.90;1.70;;;;;;;;;;4969245;28;20451;-78
2022/05/11 11:19:06;;;;;;;2.77;1.50;;;;;;;;;;4983377;28;20462;-77
2022/05/11 11:21:33;;;;;;;1.70;1.33;;;;;;;;;;5001146;28;20458;-78
2022/05/11 11:24:10;;;;;;;1.77;1.30;;;;;;;;;;4983485;28;20470;-80
2022/05/11 11:26:42;;;;;;;2.10;1.37;;;;;;;;;;4996531;28;20425;-79
2022/05/11 11:29:08;;;;;;;1.40;1.30;;;;;;;;;;4985776;28;20445;-81
2022/05/11 11:31:54;;;;;;;3.47;1.60;;;;;;;;;;4998968;28;20450;-80
2022/05/11 11:34:22;;;;;;;1.57;1.20;;;;;;;;;;4997700;28;20434;-78
2022/05/11 11:36:49;;;;;;;3.43;1.23;;;;;;;;;;4982385;28;20422;-79
2022/05/11 11:39:34;;;;;;;7.23;1.50;;;;;;;;;;4998814;28;20440;-78
2022/05/11 11:42:02;;;;;;;3.97;1.50;;;;;;;;;;4983554;28;20992;-82
2022/05/11 11:44:32;;;;;;;1.30;1.20;;;;;;;;;;4995838;28;20439;-77
2022/05/11 11:46:59;;;;;;;4.10;1.40;;;;;;;;;;4983578;28;20481;-80
2022/05/11 11:49:27;;;;;;;2.10;1.40;;;;;;;;;;5000219;28;20446;-81
2022/05/11 11:52:00;;;;;;;1.80;1.53;;;;;;;;;;4998245;28;20450;-77
2022/05/11 11:54:32;;;;;;;3.50;2.03;;;;;;;;;;4997969;28;20431;-80
2022/05/11 11:56:59;;;;;;;3.97;1.57;;;;;;;;;;4996457;28;20414;-79
2022/05/11 11:59:25;;;;;;;2.17;1.67;;;;;;;;;;4997065;28;20507;-80
2022/05/11 12:01:55;;;;;;;3.10;1.63;;;;;;;;;;4995992;28;20416;-81
2022/05/11 12:04:25;;;;;;;1.90;1.27;;;;;;;;;;4981667;28;20947;-80
2022/05/11 12:15:12;;;;;;;1.70;1.40;;;;;;;;;;4998024;28;20935;-81
2022/05/11 12:17:39;;;;;;;3.07;1.30;;;;;;;;;;4985370;28;20558;-79
2022/05/11 12:20:07;;;;;;;1.93;1.60;;;;;;;;;;4994805;28;20442;-80
2022/05/11 12:22:37;;;;;;;4.77;2.27;;;;;;;;;;4997461;28;20446;-86
2022/05/11 12:25:09;;;;;;;3.20;1.40;;;;;;;;;;4998014;28;20476;-79
2022/05/11 12:27:36;;;;;;;1.33;1.23;;;;;;;;;;4999186;28;20778;-78
2022/05/11 12:30:05;;;;;;;1.90;1.50;;;;;;;;;;4992764;28;20454;-81
2022/05/11 12:32:33;;;;;;;3.30;1.50;;;;;;;;;;4995685;28;20543;-80
2022/05/11 12:35:09;;;;;;;1.60;1.50;;;;;;;;;;4984617;28;20954;-79
2022/05/11 12:37:37;;;;;;;1.90;1.30;;;;;;;;;;4980171;28;20521;-78
2022/05/11 12:40:08;;;;;;;2.23;1.60;;;;;;;;;;4979876;28;20433;-79
2022/05/11 12:42:36;;;;;;;1.20;1.10;;;;;;;;;;4981607;28;20426;-82
2022/05/11 12:45:03;;;;;;;1.50;1.30;;;;;;;;;;4982905;28;20638;-79
2022/05/11 12:47:29;;;;;;;2.40;1.00;;;;;;;;;;4995733;28;20527;-80
2022/05/11 12:49:55;;;;;;;1.50;0.90;;;;;;;;;;4994024;28;20926;-82
2022/05/11 12:52:24;;;;;;;1.63;1.40;;;;;;;;;;4979515;28;20458;-78
2022/05/11 12:54:58;;;;;;;1.50;1.20;;;;;;;;;;4972814;28;20459;-87
2022/05/11 12:57:24;;;;;;;1.30;1.10;;;;;;;;;;4995961;28;20422;-87
2022/05/11 12:59:52;;;;;;;1.77;1.23;;;;;;;;;;4996797;28;20442;-85
2022/05/11 13:02:21;;;;;;;2.30;1.17;;;;;;;;;;4992953;28;20475;-84
2022/05/11 13:04:54;;;;;;;1.23;1.10;;;;;;;;;;4992977;28;20450;-84
2022/05/11 13:07:23;;;;;;;1.37;1.10;;;;;;;;;;4983392;28;20439;-83
2022/05/11 13:09:52;;;;;;;2.17;1.20;;;;;;;;;;4997546;28;20442;-80
2022/05/11 13:12:18;;;;;;;2.83;1.23;;;;;;;;;;4985394;28;20458;-87
2022/05/11 13:14:45;;;;;;;1.10;1.00;;;;;;;;;;4977671;28;20436;-83
2022/05/11 13:17:18;;;;;;;0.80;0.80;;;;;;;;;;4996902;28;20511;-86
2022/05/11 13:19:51;;;;;;;3.40;1.10;;;;;;;;;;4992394;28;20479;-84
2022/05/11 13:22:24;;;;;;;2.80;1.40;;;;;;;;;;4963375;28;20498;-81
2022/05/11 13:24:51;;;;;;;1.53;1.43;;;;;;;;;;4985382;28;20464;-88
2022/05/11 13:27:25;;;;;;;1.50;0.90;;;;;;;;;;4997296;28;20425;-81
2022/05/11 13:30:01;;;;;;;1.30;0.90;;;;;;;;;;4985490;28;20593;-82
2022/05/11 13:32:27;;;;;;;3.53;1.20;;;;;;;;;;4985032;28;20482;-82
2022/05/11 13:35:13;;;;;;;2.03;1.03;;;;;;;;;;4985067;28;21004;-82
2022/05/11 13:37:39;;;;;;;1.00;0.90;;;;;;;;;;4999741;28;20438;-84
2022/05/11 13:40:07;;;;;;;1.03;0.90;;;;;;;;;;4997166;28;20450;-85
2022/05/11 13:42:33;;;;;;;2.70;1.30;;;;;;;;;;4999032;28;20449;-85
2022/05/11 13:45:04;;;;;;;1.77;1.10;;;;;;;;;;4989011;28;20448;-82
2022/05/11 13:50:31;;;;;;;2.60;1.10;;;;;;;;;;4999543;28;20525;-86
2022/05/11 13:53:02;;;;;;;2.30;1.10;;;;;;;;;;4982540;28;20523;-81
2022/05/11 13:55:33;;;;;;;2.07;1.10;;;;;;;;;;4987471;28;20527;-84
2022/05/11 13:58:18;;;;;;;0.97;0.87;;;;;;;;;;4984079;28;20419;-81
2022/05/11 14:00:44;;;;;;;3.33;1.00;;;;;;;;;;5002915;28;20446;-81
2022/05/11 14:03:14;;;;;;;1.90;1.00;;;;;;;;;;4995877;28;20424;-82
2022/05/11 14:05:40;;;;;;;1.33;1.03;;;;;;;;;;4987866;28;20437;-82
2022/05/11 14:08:06;;;;;;;1.93;1.43;;;;;;;;;;5000791;28;20436;-84
2022/05/11 14:10:32;;;;;;;1.77;0.90;;;;;;;;;;4987152;28;20494;-80
2022/05/11 14:12:58;;;;;;;1.33;0.80;;;;;;;;;;5001381;28;20458;-87
2022/05/11 14:15:23;;;;;;;2.27;1.40;;;;;;;;;;5000545;28;20982;-84
2022/05/11 14:17:51;;;;;;;1.50;1.10;;;;;;;;;;4988215;28;20427;-82
2022/05/11 14:20:20;;;;;;;1.10;1.00;;;;;;;;;;4987868;28;20471;-83
2022/05/11 14:22:46;;;;;;;2.90;1.00;;;;;;;;;;4980843;28;20434;-78
2022/05/11 14:25:13;;;;;;;1.17;1.07;;;;;;;;;;4988749;28;20449;-81
2022/05/11 14:27:39;;;;;;;1.93;1.23;;;;;;;;;;5002892;28;20384;-81
2022/05/11 14:30:06;;;;;;;1.57;1.10;;;;;;;;;;4988139;28;20446;-83
2022/05/11 14:32:35;;;;;;;1.63;1.03;;;;;;;;;;4987194;28;20975;-84
2022/05/11 14:35:02;;;;;;;2.30;1.20;;;;;;;;;;5002411;28;20533;-84
2022/05/11 14:37:29;;;;;;;1.60;1.20;;;;;;;;;;4986397;28;20438;-85
2022/05/11 14:39:59;;;;;;;2.70;1.20;;;;;;;;;;4982846;28;20426;-85
2022/05/11 14:42:25;;;;;;;1.63;1.10;;;;;;;;;;5000510;28;20414;-83
2022/05/11 14:44:54;;;;;;;1.83;1.10;;;;;;;;;;4998188;28;20441;-86
2022/05/11 14:47:20;;;;;;;2.20;1.43;;;;;;;;;;4998377;28;20445;-82
2022/05/11 14:49:46;;;;;;;2.00;1.33;;;;;;;;;;5003743;28;20662;-89
2022/05/11 14:52:12;;;;;;;1.07;1.00;;;;;;;;;;4983029;28;20470;-81
2022/05/11 14:54:38;;;;;;;1.53;1.10;;;;;;;;;;5001183;28;20422;-80
2022/05/11 15:02:35;;;;;;;1.70;1.40;;;;;;;;;;4997239;28;20445;-80
2022/05/11 15:05:02;;;;;;;1.53;1.43;;;;;;;;;;4984142;28;20447;-81
2022/05/11 15:07:28;;;;;;;2.10;1.50;;;;;;;;;;4987677;28;20524;-86
2022/05/11 15:09:56;;;;;;;6.03;1.40;;;;;;;;;;5000264;28;20423;-85
2022/05/11 15:15:07;;;;;;;2.57;1.33;;;;;;;;;;4997766;28;20454;-80
2022/05/11 15:17:34;;;;;;;2.40;1.20;;;;;;;;;;4997420;28;20411;-82
2022/05/11 15:20:02;;;;;;;1.77;1.17;;;;;;;;;;4999763;28;20539;-82
2022/05/11 15:22:28;;;;;;;1.30;1.20;;;;;;;;;;4979178;28;20415;-83
2022/05/11 15:24:55;;;;;;;2.23;1.30;;;;;;;;;;4997823;28;20410;-82
2022/05/11 15:27:21;;;;;;;1.13;1.03;;;;;;;;;;4997182;28;20399;-85
2022/05/11 15:29:47;;;;;;;2.17;1.50;;;;;;;;;;4984285;28;20425;-85
2022/05/11 15:32:23;;;;;;;1.30;1.20;;;;;;;;;;4985822;28;20441;-92
2022/05/11 15:34:50;;;;;;;2.50;1.23;;;;;;;;;;4997364;28;20439;-84
2022/05/11 15:37:16;;;;;;;1.30;1.20;;;;;;;;;;4991141;28;20445;-83
2022/05/11 15:39:43;;;;;;;1.90;1.00;;;;;;;;;;5005087;28;20423;-85
2022/05/11 15:42:09;;;;;;;1.00;1.00;;;;;;;;;;4998904;28;20426;-87